| time (UTC) | temp F | wind direction | speed MPH | gust MPH | rain 1hr in | rain 24hr in | rain mn in | humidity % | barometer mb |
| 20260503024428 | 72 | 349 | 0.0 | 0.0 | 0.00 | 0.16 | 0.16 | 99 | 1011.0 |
| 20260503023926 | 72 | 191 | 0.0 | 0.0 | 0.00 | 0.16 | 0.16 | 99 | 1010.7 |
| 20260503023423 | 72 | 295 | 0.0 | 1.0 | 0.00 | 0.16 | 0.16 | 99 | 1011.2 |
| 20260503022919 | 72 | 273 | 0.0 | 0.0 | 0.00 | 0.16 | 0.16 | 99 | 1011.1 |
| 20260503022414 | 72 | 287 | 0.0 | 0.0 | 0.00 | 0.16 | 0.16 | 99 | 1010.9 |
| 20260503021910 | 72 | 275 | 0.0 | 0.0 | 0.00 | 0.16 | 0.16 | 99 | 1010.6 |
| 20260503021406 | 72 | 197 | 0.0 | 0.0 | 0.00 | 0.16 | 0.16 | 99 | 1010.5 |
| 20260503020904 | 72 | 274 | 0.0 | 0.0 | 0.00 | 0.16 | 0.16 | 98 | 1010.4 |
| 20260503020402 | 71 | 165 | 0.0 | 0.0 | 0.00 | 0.16 | 0.16 | 98 | 1010.3 |
| 20260503015857 | 72 | 187 | 0.0 | 0.0 | 0.00 | 0.16 | 0.16 | 98 | 1010.2 |
| 20260503015355 | 72 | 196 | 0.0 | 0.0 | 0.00 | 0.16 | 0.16 | 98 | 1010.3 |
| 20260503014850 | 72 | 159 | 0.0 | 0.0 | 0.00 | 0.16 | 0.16 | 98 | 1010.4 |
| 20260503014348 | 71 | 170 | 0.0 | 0.0 | 0.00 | 0.16 | 0.16 | 98 | 1010.6 |
| 20260503013846 | 72 | 167 | 0.0 | 0.0 | 0.00 | 0.16 | 0.16 | 98 | 1010.6 |
| 20260503013343 | 71 | 283 | 0.0 | 0.0 | 0.00 | 0.16 | 0.16 | 98 | 1010.5 |
| 20260503012839 | 71 | 187 | 0.0 | 0.0 | 0.00 | 0.16 | 0.16 | 98 | 1010.5 |
| 20260503012337 | 71 | 152 | 0.0 | 0.0 | 0.00 | 0.16 | 0.16 | 98 | 1010.4 |
| 20260503011834 | 71 | 283 | 0.0 | 0.0 | 0.00 | 0.16 | 0.16 | 97 | 1010.4 |
| 20260503011331 | 71 | 286 | 0.0 | 0.0 | 0.00 | 0.16 | 0.16 | 97 | 1010.5 |
| 20260503010827 | 71 | 281 | 0.0 | 0.0 | 0.00 | 0.16 | 0.16 | 97 | 1010.5 |
| 20260503010325 | 71 | 246 | 0.0 | 0.0 | 0.00 | 0.16 | 0.16 | 97 | 1010.3 |
| 20260503005821 | 72 | 171 | 0.0 | 0.0 | 0.00 | 0.16 | 0.16 | 97 | 1010.2 |
| 20260503005319 | 71 | 162 | 0.0 | 0.0 | 0.00 | 0.16 | 0.16 | 97 | 1010.0 |
| 20260503004815 | 71 | 105 | 0.0 | 0.0 | 0.00 | 0.16 | 0.16 | 97 | 1010.2 |
| 20260503004313 | 71 | 87 | 0.0 | 0.0 | 0.00 | 0.16 | 0.16 | 97 | 1010.3 |
| 20260503003810 | 71 | 123 | 0.0 | 0.0 | 0.00 | 0.16 | 0.16 | 97 | 1010.2 |
| 20260503003307 | 70 | 125 | 0.0 | 0.0 | 0.00 | 0.16 | 0.16 | 97 | 1010.5 |
| 20260503002804 | 71 | 153 | 0.0 | 0.0 | 0.00 | 0.16 | 0.16 | 97 | 1009.9 |
| 20260503002301 | 71 | 154 | 0.0 | 0.0 | 0.00 | 0.16 | 0.16 | 97 | 1010.0 |
| 20260503001757 | 70 | 154 | 0.0 | 0.0 | 0.00 | 0.16 | 0.16 | 97 | 1009.9 |
| 20260503001253 | 71 | 155 | 0.0 | 0.0 | 0.00 | 0.16 | 0.16 | 97 | 1010.0 |
| 20260503000751 | 71 | 154 | 0.0 | 0.0 | 0.00 | 0.16 | 0.16 | 97 | 1009.9 |
| 20260503000248 | 71 | 154 | 0.0 | 0.0 | 0.00 | 0.16 | 0.16 | 97 | 1010.0 |
| 20260502235745 | 71 | 143 | 0.0 | 0.0 | 0.00 | 0.16 | 0.16 | 96 | 1010.1 |
| 20260502235243 | 71 | 121 | 0.0 | 0.0 | 0.00 | 0.16 | 0.16 | 96 | 1010.0 |
| 20260502234739 | 70 | 112 | 0.0 | 0.0 | 0.00 | 0.16 | 0.16 | 96 | 1010.0 |
| 20260502234236 | 70 | 149 | 0.0 | 0.0 | 0.00 | 0.16 | 0.16 | 96 | 1010.2 |
| 20260502233732 | 70 | 128 | 0.0 | 0.0 | 0.00 | 0.16 | 0.16 | 95 | 1010.0 |
| 20260502233229 | 70 | 99 | 0.0 | 0.0 | 0.19 | 0.16 | 0.16 | 95 | 1009.8 |
| 20260502232725 | 71 | 124 | 0.0 | 0.0 | 0.97 | 0.16 | 0.16 | 94 | 1010.2 |
| 20260502232222 | 72 | 139 | 0.0 | 0.0 | 0.85 | 0.14 | 0.14 | 91 | 1010.1 |
| 20260502231719 | 78 | 342 | 0.0 | 1.0 | 0.00 | 0.00 | 0.00 | 79 | 1010.3 |
| 20260502231217 | 82 | 40 | 0.0 | 0.0 | 0.00 | 0.00 | 0.00 | 79 | 1010.0 |
| 20260502230716 | 83 | 335 | 1.0 | 3.0 | 0.00 | 0.00 | 0.00 | 80 | 1009.2 |
| 20260502230213 | 83 | 327 | 0.0 | 0.0 | 0.00 | 0.00 | 0.00 | 79 | 1009.1 |
| 20260502225708 | 83 | 311 | 0.0 | 1.0 | 0.00 | 0.00 | 0.00 | 78 | 1009.1 |
| 20260502225206 | 83 | 342 | 0.0 | 1.0 | 0.00 | 0.00 | 0.00 | 78 | 1008.9 |
| 20260502224702 | 84 | 38 | 0.0 | 1.0 | 0.00 | 0.00 | 0.00 | 77 | 1008.9 |
| 20260502224159 | 83 | 328 | 0.0 | 1.0 | 0.00 | 0.00 | 0.00 | 77 | 1008.7 |
| 20260502223657 | 84 | 318 | 0.0 | 0.0 | 0.00 | 0.00 | 0.00 | 77 | 1008.6 |
| 20260502223155 | 83 | 353 | 1.0 | 1.0 | 0.00 | 0.00 | 0.00 | 76 | 1008.7 |
| 20260502222652 | 84 | 294 | 1.0 | 2.0 | 0.00 | 0.00 | 0.00 | 76 | 1008.4 |
| 20260502222149 | 84 | 318 | 0.0 | 1.0 | 0.00 | 0.00 | 0.00 | 76 | 1008.5 |
| 20260502221644 | 84 | 339 | 0.0 | 1.0 | 0.00 | 0.00 | 0.00 | 75 | 1008.4 |
| 20260502221142 | 84 | 357 | 0.0 | 0.0 | 0.00 | 0.00 | 0.00 | 74 | 1008.7 |
| 20260502220637 | 84 | 48 | 0.0 | 1.0 | 0.00 | 0.00 | 0.00 | 72 | 1008.4 |
| 20260502220133 | 84 | 329 | 1.0 | 1.0 | 0.00 | 0.00 | 0.00 | 72 | 1008.3 |
| 20260502215631 | 84 | 323 | 1.0 | 2.0 | 0.00 | 0.00 | 0.00 | 72 | 1008.2 |
| 20260502215128 | 84 | 35 | 1.0 | 1.0 | 0.00 | 0.00 | 0.00 | 72 | 1008.1 |
| 20260502214625 | 85 | 307 | 0.0 | 0.0 | 0.00 | 0.00 | 0.00 | 69 | 1007.9 |
| 20260502214122 | 85 | 4 | 0.0 | 0.0 | 0.00 | 0.00 | 0.00 | 70 | 1008.2 |
| 20260502213620 | 85 | 346 | 0.0 | 1.0 | 0.00 | 0.00 | 0.00 | 70 | 1008.0 |
| 20260502213117 | 86 | 344 | 0.0 | 0.0 | 0.00 | 0.00 | 0.00 | 69 | 1008.0 |
| 20260502212616 | 86 | 9 | 0.0 | 0.0 | 0.00 | 0.00 | 0.00 | 67 | 1008.0 |
| 20260502212114 | 87 | 359 | 1.0 | 2.0 | 0.00 | 0.00 | 0.00 | 66 | 1008.2 |
| 20260502211609 | 87 | 313 | 1.0 | 2.0 | 0.00 | 0.00 | 0.00 | 64 | 1007.8 |
| 20260502211106 | 87 | 347 | 1.0 | 2.0 | 0.00 | 0.00 | 0.00 | 62 | 1007.8 |
| 20260502210603 | 89 | 4 | 1.0 | 2.0 | 0.00 | 0.00 | 0.00 | 60 | 1007.8 |
| 20260502210100 | 89 | 358 | 1.0 | 2.0 | 0.00 | 0.00 | 0.00 | 60 | 1008.0 |
| 20260502205556 | 90 | 267 | 0.0 | 1.0 | 0.00 | 0.00 | 0.00 | 58 | 1007.7 |
| 20260502205054 | 90 | 339 | 1.0 | 1.0 | 0.00 | 0.00 | 0.00 | 57 | 1007.6 |
| 20260502204550 | 91 | 356 | 1.0 | 1.0 | 0.00 | 0.00 | 0.00 | 55 | 1007.7 |
| 20260502204048 | 90 | 331 | 1.0 | 1.0 | 0.00 | 0.00 | 0.00 | 56 | 1007.7 |
| 20260502203545 | 90 | 285 | 1.0 | 3.0 | 0.00 | 0.00 | 0.00 | 59 | 1007.6 |
| 20260502203042 | 91 | 312 | 0.0 | 1.0 | 0.00 | 0.00 | 0.00 | 59 | 1007.7 |
| 20260502202538 | 90 | 3 | 2.0 | 6.0 | 0.00 | 0.00 | 0.00 | 60 | 1007.5 |
| 20260502202036 | 90 | 312 | 0.0 | 0.0 | 0.00 | 0.00 | 0.00 | 58 | 1007.4 |
| 20260502201532 | 90 | 283 | 3.0 | 3.0 | 0.00 | 0.00 | 0.00 | 57 | 1007.6 |
| 20260502201029 | 90 | 324 | 1.0 | 1.0 | 0.00 | 0.00 | 0.00 | 57 | 1007.4 |
| 20260502200525 | 91 | 306 | 2.0 | 2.0 | 0.00 | 0.00 | 0.00 | 57 | 1007.4 |
| 20260502200023 | 91 | 285 | 1.0 | 2.0 | 0.00 | 0.00 | 0.00 | 55 | 1007.5 |
| 20260502195521 | 91 | 300 | 0.0 | 1.0 | 0.00 | 0.00 | 0.00 | 59 | 1007.6 |
| 20260502195016 | 91 | 20 | 0.0 | 0.0 | 0.00 | 0.00 | 0.00 | 54 | 1007.5 |
| 20260502194513 | 91 | 352 | 2.0 | 2.0 | 0.00 | 0.00 | 0.00 | 52 | 1007.6 |
| 20260502194009 | 92 | 339 | 1.0 | 2.0 | 0.00 | 0.00 | 0.00 | 53 | 1007.4 |
| 20260502193506 | 90 | 40 | 0.0 | 0.0 | 0.00 | 0.00 | 0.00 | 55 | 1007.7 |
| 20260502193003 | 91 | 344 | 1.0 | 2.0 | 0.00 | 0.00 | 0.00 | 54 | 1007.8 |
| 20260502192458 | 91 | 301 | 1.0 | 2.0 | 0.00 | 0.00 | 0.00 | 53 | 1008.0 |
| 20260502191955 | 92 | 12 | 2.0 | 3.0 | 0.00 | 0.00 | 0.00 | 52 | 1008.0 |
| 20260502191453 | 92 | 61 | 0.0 | 2.0 | 0.00 | 0.00 | 0.00 | 55 | 1008.0 |
| 20260502190951 | 90 | 329 | 1.0 | 2.0 | 0.00 | 0.00 | 0.00 | 56 | 1008.1 |
| 20260502190448 | 91 | 333 | 3.0 | 3.0 | 0.00 | 0.00 | 0.00 | 53 | 1008.3 |
| 20260502185944 | 91 | 292 | 1.0 | 3.0 | 0.00 | 0.00 | 0.00 | 55 | 1008.3 |
| 20260502185440 | 91 | 270 | 1.0 | 2.0 | 0.00 | 0.00 | 0.00 | 54 | 1008.4 |
| 20260502184937 | 91 | 350 | 2.0 | 3.0 | 0.00 | 0.00 | 0.00 | 54 | 1008.6 |
| 20260502184432 | 91 | 288 | 2.0 | 3.0 | 0.00 | 0.00 | 0.00 | 55 | 1008.4 |
| 20260502183929 | 91 | 4 | 1.0 | 2.0 | 0.00 | 0.00 | 0.00 | 55 | 1008.5 |
| 20260502183425 | 90 | 315 | 2.0 | 6.0 | 0.00 | 0.00 | 0.00 | 55 | 1008.4 |
| 20260502182920 | 91 | 341 | 1.0 | 2.0 | 0.00 | 0.00 | 0.00 | 55 | 1008.4 |
| 20260502182416 | 91 | 322 | 2.0 | 5.0 | 0.00 | 0.00 | 0.00 | 54 | 1008.6 |
| 20260502181912 | 91 | 6 | 1.0 | 3.0 | 0.00 | 0.00 | 0.00 | 55 | 1008.6 |
| 20260502181411 | 91 | 186 | 0.0 | 0.0 | 0.00 | 0.00 | 0.00 | 52 | 1008.7 |
| 20260502180909 | 91 | 321 | 3.0 | 3.0 | 0.00 | 0.00 | 0.00 | 57 | 1008.8 |
| 20260502180406 | 91 | 325 | 2.0 | 2.0 | 0.00 | 0.00 | 0.00 | 51 | 1008.8 |
| 20260502170324 | 89 | 331 | 2.0 | 5.0 | 0.00 | 0.00 | 0.00 | 64 | 1009.0 |
| 20260502164312 | 89 | 323 | 1.0 | 2.0 | 0.00 | 0.00 | 0.00 | 66 | 1009.3 |
| 20260502163808 | 89 | 316 | 2.0 | 3.0 | 0.00 | 0.00 | 0.00 | 66 | 1009.1 |
| 20260502163304 | 89 | 355 | 1.0 | 3.0 | 0.00 | 0.00 | 0.00 | 66 | 1009.0 |
| 20260502162802 | 89 | 357 | 1.0 | 3.0 | 0.00 | 0.00 | 0.00 | 67 | 1009.0 |
| 20260502162258 | 89 | 299 | 1.0 | 3.0 | 0.00 | 0.00 | 0.00 | 65 | 1008.8 |
| 20260502161755 | 88 | 319 | 3.0 | 6.0 | 0.00 | 0.00 | 0.00 | 67 | 1008.8 |
| 20260502161251 | 88 | 324 | 0.0 | 1.0 | 0.00 | 0.00 | 0.00 | 67 | 1008.9 |
| 20260502160750 | 89 | 325 | 3.0 | 3.0 | 0.00 | 0.00 | 0.00 | 67 | 1009.0 |
| 20260502160249 | 89 | 342 | 1.0 | 2.0 | 0.00 | 0.00 | 0.00 | 67 | 1008.8 |
| 20260502152218 | 87 | 332 | 2.0 | 3.0 | 0.00 | 0.00 | 0.00 | 69 | 1008.8 |
| 20260502151715 | 86 | 282 | 0.0 | 1.0 | 0.00 | 0.00 | 0.00 | 71 | 1009.0 |
| 20260502151212 | 86 | 293 | 2.0 | 3.0 | 0.00 | 0.00 | 0.00 | 71 | 1008.8 |
| 20260502150709 | 86 | 322 | 2.0 | 2.0 | 0.00 | 0.00 | 0.00 | 71 | 1008.9 |
| 20260502150206 | 87 | 187 | 0.0 | 0.0 | 0.00 | 0.00 | 0.00 | 71 | 1008.9 |
| 20260502140130 | 84 | 321 | 1.0 | 2.0 | 0.00 | 0.00 | 0.00 | 77 | 1008.7 |
| 20260502130554 | 79 | 315 | 0.0 | 2.0 | 0.00 | 0.00 | 0.00 | 89 | 1008.6 |
| 20260502123538 | 76 | 272 | 0.0 | 0.0 | 0.00 | 0.00 | 0.00 | 92 | 1008.2 |
| 20260502123034 | 75 | 297 | 0.0 | 0.0 | 0.00 | 0.00 | 0.00 | 92 | 1008.5 |
| 20260502122531 | 75 | 179 | 0.0 | 0.0 | 0.00 | 0.00 | 0.00 | 93 | 1008.5 |
| 20260502122028 | 74 | 192 | 0.0 | 0.0 | 0.00 | 0.00 | 0.00 | 94 | 1008.3 |
| 20260502121526 | 74 | 226 | 0.0 | 0.0 | 0.00 | 0.00 | 0.00 | 94 | 1008.3 |
| 20260502121023 | 74 | 193 | 0.0 | 0.0 | 0.00 | 0.00 | 0.00 | 94 | 1008.4 |
| 20260502120519 | 73 | 244 | 0.0 | 0.0 | 0.00 | 0.00 | 0.00 | 95 | 1008.2 |
| 20260502115514 | 73 | 182 | 0.0 | 0.0 | 0.00 | 0.00 | 0.00 | 95 | 1008.0 |
| 20260502115009 | 72 | 183 | 0.0 | 0.0 | 0.00 | 0.00 | 0.00 | 95 | 1008.2 |
| 20260502114507 | 72 | 225 | 0.0 | 0.0 | 0.00 | 0.00 | 0.00 | 95 | 1008.1 |
| 20260502114003 | 72 | 215 | 0.0 | 0.0 | 0.00 | 0.00 | 0.00 | 95 | 1008.1 |
| 20260502113501 | 72 | 200 | 0.0 | 0.0 | 0.00 | 0.00 | 0.00 | 96 | 1008.1 |
| 20260502112959 | 71 | 172 | 0.0 | 0.0 | 0.00 | 0.00 | 0.00 | 96 | 1008.2 |
| 20260502112456 | 71 | 175 | 0.0 | 0.0 | 0.00 | 0.00 | 0.00 | 96 | 1008.4 |
| 20260502111954 | 71 | 157 | 0.0 | 0.0 | 0.00 | 0.00 | 0.00 | 97 | 1008.4 |
| 20260502111451 | 70 | 159 | 0.0 | 0.0 | 0.00 | 0.00 | 0.00 | 97 | 1008.2 |
| 20260502110949 | 70 | 169 | 0.0 | 0.0 | 0.00 | 0.00 | 0.00 | 97 | 1008.2 |
| 20260502110446 | 70 | 158 | 0.0 | 0.0 | 0.00 | 0.00 | 0.00 | 97 | 1008.2 |
| 20260502105943 | 70 | 159 | 0.0 | 0.0 | 0.00 | 0.00 | 0.00 | 97 | 1008.2 |
| 20260502105440 | 70 | 152 | 0.0 | 0.0 | 0.00 | 0.00 | 0.00 | 97 | 1008.2 |
| 20260502104938 | 70 | 155 | 0.0 | 0.0 | 0.00 | 0.00 | 0.00 | 97 | 1008.3 |
| 20260502104435 | 70 | 153 | 0.0 | 0.0 | 0.00 | 0.00 | 0.00 | 97 | 1008.5 |
| 20260502103932 | 70 | 160 | 0.0 | 0.0 | 0.00 | 0.00 | 0.00 | 97 | 1008.2 |
| 20260502103430 | 70 | 177 | 0.0 | 0.0 | 0.00 | 0.00 | 0.00 | 97 | 1008.2 |
| 20260502102927 | 69 | 183 | 0.0 | 0.0 | 0.00 | 0.00 | 0.00 | 97 | 1008.1 |
| 20260502102424 | 70 | 168 | 0.0 | 0.0 | 0.00 | 0.00 | 0.00 | 97 | 1008.1 |
| 20260502101921 | 70 | 166 | 0.0 | 0.0 | 0.00 | 0.00 | 0.00 | 97 | 1008.2 |
| 20260502101419 | 70 | 175 | 0.0 | 0.0 | 0.00 | 0.00 | 0.00 | 97 | 1008.2 |
| 20260502100917 | 70 | 167 | 0.0 | 0.0 | 0.00 | 0.00 | 0.00 | 97 | 1008.2 |
| 20260502100416 | 70 | 170 | 0.0 | 0.0 | 0.00 | 0.00 | 0.00 | 97 | 1008.4 |
| 20260502091350 | 68 | 173 | 0.0 | 0.0 | 0.00 | 0.00 | 0.00 | 97 | 1008.4 |
| 20260502090848 | 69 | 161 | 0.0 | 0.0 | 0.00 | 0.00 | 0.00 | 97 | 1008.5 |
| 20260502090344 | 68 | 153 | 0.0 | 0.0 | 0.00 | 0.00 | 0.00 | 97 | 1008.4 |
| 20260502071239 | 68 | 193 | 0.0 | 0.0 | 0.00 | 0.00 | 0.00 | 95 | 1008.8 |
| 20260502070737 | 67 | 239 | 0.0 | 0.0 | 0.00 | 0.00 | 0.00 | 95 | 1008.8 |
| 20260502070234 | 68 | 202 | 0.0 | 0.0 | 0.00 | 0.00 | 0.00 | 95 | 1008.9 |
| 20260502065733 | 68 | 165 | 0.0 | 0.0 | 0.00 | 0.00 | 0.00 | 95 | 1008.8 |
| 20260502065231 | 68 | 155 | 0.0 | 0.0 | 0.00 | 0.00 | 0.00 | 94 | 1008.7 |
| 20260502064729 | 68 | 161 | 0.0 | 0.0 | 0.00 | 0.00 | 0.00 | 94 | 1008.8 |
| 20260502064226 | 68 | 154 | 0.0 | 0.0 | 0.00 | 0.00 | 0.00 | 94 | 1008.4 |
| 20260502063723 | 68 | 164 | 0.0 | 0.0 | 0.00 | 0.00 | 0.00 | 93 | 1008.6 |
| 20260502063221 | 68 | 157 | 0.0 | 0.0 | 0.00 | 0.00 | 0.00 | 93 | 1008.5 |
| 20260502062718 | 68 | 151 | 0.0 | 0.0 | 0.00 | 0.00 | 0.00 | 93 | 1008.6 |
| 20260502062216 | 68 | 155 | 0.0 | 0.0 | 0.00 | 0.00 | 0.00 | 93 | 1008.4 |
| 20260502061714 | 68 | 160 | 0.0 | 0.0 | 0.00 | 0.00 | 0.00 | 93 | 1008.6 |
| 20260502061211 | 68 | 160 | 0.0 | 0.0 | 0.00 | 0.00 | 0.00 | 93 | 1008.6 |
| 20260502060706 | 69 | 155 | 0.0 | 0.0 | 0.00 | 0.00 | 0.00 | 93 | 1008.6 |
| 20260502060203 | 69 | 159 | 0.0 | 0.0 | 0.00 | 0.00 | 0.00 | 93 | 1008.8 |
| 20260502055701 | 69 | 147 | 0.0 | 0.0 | 0.00 | 0.00 | 0.00 | 92 | 1008.6 |
| 20260502055158 | 69 | 144 | 0.0 | 0.0 | 0.00 | 0.00 | 0.00 | 92 | 1008.7 |
| 20260502054658 | 69 | 151 | 0.0 | 0.0 | 0.00 | 0.00 | 0.00 | 92 | 1008.8 |
| 20260502054154 | 69 | 149 | 0.0 | 0.0 | 0.00 | 0.00 | 0.00 | 92 | 1008.8 |
| 20260502053652 | 69 | 149 | 0.0 | 0.0 | 0.00 | 0.00 | 0.00 | 93 | 1009.1 |
| 20260502053148 | 69 | 149 | 0.0 | 0.0 | 0.00 | 0.00 | 0.00 | 93 | 1009.0 |
| 20260502052647 | 69 | 150 | 0.0 | 0.0 | 0.00 | 0.00 | 0.00 | 93 | 1009.1 |
| 20260502052145 | 69 | 147 | 0.0 | 0.0 | 0.00 | 0.00 | 0.00 | 94 | 1009.3 |
| 20260502051643 | 69 | 143 | 0.0 | 0.0 | 0.00 | 0.00 | 0.00 | 94 | 1009.2 |
| 20260502051140 | 69 | 141 | 0.0 | 0.0 | 0.00 | 0.00 | 0.00 | 93 | 1009.4 |
| 20260502050636 | 69 | 137 | 0.0 | 0.0 | 0.00 | 0.00 | 0.00 | 93 | 1009.2 |
| 20260502050133 | 69 | 143 | 0.0 | 0.0 | 0.00 | 0.00 | 0.00 | 93 | 1009.1 |
| 20260502045630 | 69 | 142 | 0.0 | 0.0 | 0.00 | 0.00 | 0.00 | 92 | 1009.2 |
| 20260502045127 | 69 | 141 | 0.0 | 0.0 | 0.00 | 0.00 | 0.00 | 92 | 1009.3 |
| 20260502044623 | 69 | 137 | 0.0 | 0.0 | 0.00 | 0.00 | 0.00 | 92 | 1009.2 |
| 20260502044120 | 69 | 135 | 0.0 | 0.0 | 0.00 | 0.00 | 0.00 | 92 | 1009.2 |
| 20260502043618 | 68 | 152 | 0.0 | 0.0 | 0.00 | 0.00 | 0.00 | 91 | 1009.2 |
| 20260502043114 | 69 | 153 | 0.0 | 0.0 | 0.00 | 0.00 | 0.00 | 91 | 1009.0 |
| 20260502042609 | 69 | 153 | 0.0 | 0.0 | 0.00 | 0.00 | 0.00 | 91 | 1008.9 |
| 20260502042106 | 69 | 153 | 0.0 | 0.0 | 0.00 | 0.00 | 0.00 | 90 | 1008.9 |
| 20260502041604 | 69 | 153 | 0.0 | 0.0 | 0.00 | 0.00 | 0.00 | 90 | 1008.9 |
| 20260502041101 | 69 | 157 | 0.0 | 0.0 | 0.00 | 0.00 | 0.00 | 90 | 1008.9 |
| 20260502040557 | 69 | 151 | 0.0 | 0.0 | 0.00 | 0.00 | 0.00 | 90 | 1008.9 |
| 20260502040055 | 69 | 147 | 0.0 | 0.0 | 0.00 | 0.00 | 0.00 | 90 | 1009.1 |
| 20260502035550 | 69 | 147 | 0.0 | 0.0 | 0.00 | 0.00 | 0.00 | 89 | 1008.8 |
| 20260502035048 | 70 | 146 | 0.0 | 0.0 | 0.00 | 0.00 | 0.00 | 89 | 1009.0 |
| 20260502034546 | 70 | 146 | 0.0 | 0.0 | 0.00 | 0.00 | 0.00 | 88 | 1009.1 |
| 20260502034044 | 70 | 146 | 0.0 | 0.0 | 0.00 | 0.00 | 0.00 | 87 | 1009.1 |
| 20260502033542 | 71 | 146 | 0.0 | 0.0 | 0.00 | 0.00 | 0.00 | 87 | 1009.2 |
| 20260502033039 | 71 | 144 | 0.0 | 0.0 | 0.00 | 0.00 | 0.00 | 86 | 1009.2 |
| 20260502032535 | 71 | 142 | 0.0 | 0.0 | 0.00 | 0.00 | 0.00 | 86 | 1009.1 |
| 20260502032032 | 70 | 149 | 0.0 | 0.0 | 0.00 | 0.00 | 0.00 | 86 | 1009.1 |
| 20260502031530 | 71 | 153 | 0.0 | 0.0 | 0.00 | 0.00 | 0.00 | 85 | 1009.1 |
| 20260502031027 | 71 | 154 | 0.0 | 0.0 | 0.00 | 0.00 | 0.00 | 85 | 1009.3 |
| 20260502030526 | 72 | 155 | 0.0 | 0.0 | 0.00 | 0.00 | 0.00 | 84 | 1009.3 |
| 20260502030023 | 72 | 111 | 0.0 | 0.0 | 0.00 | 0.00 | 0.00 | 83 | 1009.4 |
| 20260502025520 | 72 | 153 | 0.0 | 0.0 | 0.00 | 0.00 | 0.00 | 82 | 1009.4 |
| 20260502025019 | 73 | 161 | 0.0 | 0.0 | 0.00 | 0.00 | 0.00 | 81 | 1009.2 |